createdAt,value
2017-07-19T00:02:19.311Z,25.92
2017-07-19T00:04:46.826Z,25.96
2017-07-19T00:07:14.383Z,25.98
2017-07-19T00:09:41.972Z,25.99
2017-07-19T00:12:09.493Z,25.99
2017-07-19T00:14:37.092Z,25.94
2017-07-19T00:17:04.600Z,25.93
2017-07-19T00:19:32.211Z,25.93
2017-07-19T00:21:59.720Z,25.91
2017-07-19T00:24:27.267Z,25.88
2017-07-19T00:26:54.788Z,25.83
2017-07-19T00:29:22.338Z,25.78
2017-07-19T00:31:49.845Z,25.65
2017-07-19T00:34:17.385Z,25.45
2017-07-19T00:36:44.903Z,25.47
2017-07-19T00:39:12.494Z,25.43
2017-07-19T00:41:40.090Z,25.55
2017-07-19T00:44:07.655Z,25.56
2017-07-19T00:46:35.210Z,25.52
2017-07-19T00:49:02.757Z,25.28
2017-07-19T00:51:30.272Z,25.15
2017-07-19T00:53:57.818Z,25.27
2017-07-19T00:56:25.341Z,25.35
2017-07-19T00:58:52.878Z,25.40
2017-07-19T01:01:20.442Z,25.43
2017-07-19T01:03:47.952Z,25.42
2017-07-19T01:06:15.522Z,25.41
2017-07-19T01:08:43.036Z,25.41
2017-07-19T01:11:10.577Z,25.43
2017-07-19T01:13:38.106Z,25.39
2017-07-19T01:16:05.725Z,25.42
2017-07-19T01:18:33.242Z,25.46
2017-07-19T01:21:00.843Z,25.50
2017-07-19T01:23:28.364Z,25.50
2017-07-19T01:25:55.916Z,25.48
2017-07-19T01:28:23.432Z,25.36
2017-07-19T01:30:51.082Z,25.42
2017-07-19T01:33:18.652Z,25.36
2017-07-19T01:35:46.215Z,25.26
2017-07-19T01:38:13.730Z,25.24
2017-07-19T01:40:41.424Z,25.28
2017-07-19T01:43:08.932Z,25.31
2017-07-19T01:45:36.474Z,25.34
2017-07-19T01:48:03.993Z,25.37
2017-07-19T01:50:31.506Z,25.40
2017-07-19T01:52:59.123Z,25.41
2017-07-19T01:55:26.640Z,25.36
2017-07-19T01:57:54.194Z,25.36
2017-07-19T02:00:21.710Z,25.35
2017-07-19T02:02:49.258Z,25.31
2017-07-19T02:05:16.774Z,25.33
2017-07-19T02:07:44.324Z,25.33
2017-07-19T02:10:11.843Z,25.33
2017-07-19T02:12:39.385Z,25.34
2017-07-19T02:15:06.896Z,25.35
2017-07-19T02:17:34.442Z,25.28
2017-07-19T02:20:01.951Z,25.25
2017-07-19T02:22:29.493Z,25.20
2017-07-19T02:24:57.086Z,25.13
2017-07-19T02:27:24.635Z,25.09
2017-07-19T02:29:54.212Z,25.10
2017-07-19T02:32:21.838Z,25.07
2017-07-19T02:34:49.366Z,25.05
2017-07-19T02:37:16.944Z,25.09
2017-07-19T02:39:44.466Z,25.13
2017-07-19T02:42:11.985Z,25.13
2017-07-19T02:44:39.535Z,25.16
2017-07-19T02:47:07.070Z,25.17
2017-07-19T02:49:34.630Z,25.15
2017-07-19T02:52:02.178Z,25.15
2017-07-19T02:54:29.733Z,25.14
2017-07-19T02:56:57.363Z,25.17
2017-07-19T02:59:24.910Z,25.17
2017-07-19T03:01:52.415Z,25.18
2017-07-19T03:04:19.956Z,25.21
2017-07-19T03:06:47.481Z,25.23
2017-07-19T03:09:15.029Z,25.24
2017-07-19T03:11:42.538Z,25.26
2017-07-19T03:14:10.127Z,25.23
2017-07-19T03:16:37.647Z,25.25
2017-07-19T03:19:05.247Z,25.27
2017-07-19T03:21:32.807Z,25.28
2017-07-19T03:24:00.351Z,25.29
2017-07-19T03:26:27.861Z,25.30
2017-07-19T03:28:55.491Z,25.29
2017-07-19T03:31:23.035Z,25.29
2017-07-19T03:33:50.560Z,25.29
2017-07-19T03:36:18.116Z,25.26
2017-07-19T03:38:45.631Z,25.21
2017-07-19T03:41:13.185Z,25.20
2017-07-19T03:43:40.704Z,25.18
2017-07-19T03:46:08.255Z,25.17
2017-07-19T03:48:35.769Z,25.18
2017-07-19T03:51:03.332Z,25.17
2017-07-19T03:53:31.641Z,25.16
2017-07-19T03:55:59.189Z,25.19
2017-07-19T03:58:26.705Z,25.14
2017-07-19T04:00:54.254Z,25.14
2017-07-19T04:03:21.764Z,25.17
2017-07-19T04:05:49.327Z,25.16
2017-07-19T04:08:16.922Z,25.20
2017-07-19T04:10:44.471Z,25.22
2017-07-19T04:13:11.976Z,25.24
2017-07-19T04:15:39.530Z,25.28
2017-07-19T04:18:07.044Z,25.30
2017-07-19T04:20:34.559Z,25.29
2017-07-19T04:23:02.126Z,25.28
2017-07-19T04:25:29.661Z,25.26
2017-07-19T04:27:57.240Z,25.25
2017-07-19T04:30:24.753Z,25.26
2017-07-19T04:32:52.291Z,25.23
2017-07-19T04:35:19.797Z,25.23
2017-07-19T04:37:47.381Z,25.27
2017-07-19T04:40:14.950Z,25.28
2017-07-19T04:42:42.493Z,25.24
2017-07-19T04:45:10.057Z,25.26
2017-07-19T04:47:37.605Z,25.25
2017-07-19T04:50:05.112Z,25.28
2017-07-19T04:52:32.657Z,25.34
2017-07-19T04:55:00.184Z,25.52
2017-07-19T04:57:27.752Z,25.52
2017-07-19T04:59:55.261Z,25.54
2017-07-19T05:02:22.874Z,25.53
2017-07-19T05:04:50.386Z,25.57
2017-07-19T05:07:17.899Z,25.60
2017-07-19T05:09:45.441Z,25.61
2017-07-19T05:12:12.959Z,25.61
2017-07-19T05:14:40.511Z,25.61
2017-07-19T05:17:08.031Z,25.60
2017-07-19T05:19:35.576Z,25.61
2017-07-19T05:22:03.092Z,25.61
2017-07-19T05:24:30.648Z,25.61
2017-07-19T05:26:58.249Z,25.63
2017-07-19T05:29:25.787Z,25.63
2017-07-19T05:31:53.299Z,25.64
2017-07-19T05:34:20.846Z,25.64
2017-07-19T05:36:48.357Z,25.65
2017-07-19T05:39:15.897Z,25.65
2017-07-19T05:41:43.525Z,25.66
2017-07-19T05:44:11.068Z,25.66
2017-07-19T05:46:38.575Z,25.66
2017-07-19T05:49:06.117Z,25.67
2017-07-19T05:51:33.625Z,25.67
2017-07-19T05:54:01.185Z,25.67
2017-07-19T05:56:28.703Z,25.68
2017-07-19T05:58:56.213Z,25.68
2017-07-19T06:01:23.799Z,25.67
2017-07-19T06:03:51.359Z,25.68
2017-07-19T06:06:18.908Z,25.69
2017-07-19T06:08:46.433Z,25.69
2017-07-19T06:11:13.986Z,25.70
2017-07-19T06:13:41.495Z,25.71
2017-07-19T06:16:09.049Z,25.72
2017-07-19T06:18:36.568Z,25.72
2017-07-19T06:21:04.109Z,25.74
2017-07-19T06:23:31.647Z,25.74
2017-07-19T06:25:59.194Z,25.75
2017-07-19T06:28:26.697Z,25.75
2017-07-19T06:30:54.244Z,25.75
2017-07-19T06:33:21.820Z,25.77
2017-07-19T06:35:49.365Z,25.76
2017-07-19T06:38:16.882Z,25.76
2017-07-19T06:40:44.424Z,25.77
2017-07-19T06:43:11.944Z,25.78
2017-07-19T06:45:39.452Z,25.78
2017-07-19T06:48:07.001Z,25.78
2017-07-19T06:50:34.515Z,25.78
2017-07-19T06:53:02.058Z,25.78
2017-07-19T06:55:29.652Z,25.78
2017-07-19T06:57:57.217Z,25.79
2017-07-19T07:00:24.738Z,25.79
2017-07-19T07:02:52.281Z,25.80
2017-07-19T07:05:19.786Z,25.79
2017-07-19T07:07:47.336Z,25.80
2017-07-19T07:10:14.844Z,25.80
2017-07-19T07:12:42.388Z,25.81
2017-07-19T07:15:09.900Z,25.80
2017-07-19T07:17:37.445Z,25.81
2017-07-19T07:20:04.957Z,25.81
2017-07-19T07:22:32.487Z,25.82
2017-07-19T07:24:59.999Z,25.82
2017-07-19T07:27:27.539Z,25.82
2017-07-19T07:29:55.053Z,25.82
2017-07-19T07:32:22.601Z,25.83
2017-07-19T07:34:50.114Z,25.83
2017-07-19T07:37:17.632Z,25.83
2017-07-19T07:39:45.218Z,25.83
2017-07-19T07:42:12.728Z,25.83
2017-07-19T07:44:40.268Z,25.84
2017-07-19T07:47:07.782Z,25.85
2017-07-19T07:49:35.331Z,25.85
2017-07-19T07:52:02.855Z,25.86
2017-07-19T07:54:30.402Z,25.86
2017-07-19T07:56:57.908Z,25.88
2017-07-19T07:59:25.451Z,25.88
2017-07-19T08:01:52.973Z,25.88
2017-07-19T08:04:20.512Z,25.89
2017-07-19T08:06:48.068Z,25.89
2017-07-19T08:09:15.605Z,25.89
2017-07-19T08:11:43.113Z,25.90
2017-07-19T08:14:10.657Z,25.90
2017-07-19T08:16:38.178Z,25.91
2017-07-19T08:19:05.729Z,25.90
2017-07-19T08:21:33.232Z,25.92
2017-07-19T08:24:00.773Z,25.92
2017-07-19T08:26:28.284Z,25.93
2017-07-19T08:28:55.793Z,25.93
2017-07-19T08:31:23.337Z,25.94
2017-07-19T08:33:50.844Z,25.95
2017-07-19T08:36:18.390Z,25.95
2017-07-19T08:38:45.899Z,25.96
2017-07-19T08:41:13.441Z,25.96
2017-07-19T08:43:40.954Z,25.97
2017-07-19T08:46:08.504Z,25.98
2017-07-19T08:48:36.022Z,25.98
2017-07-19T08:51:03.575Z,25.99
2017-07-19T08:53:31.822Z,26.00
2017-07-19T08:55:59.355Z,26.01
2017-07-19T08:58:26.870Z,26.00
2017-07-19T09:00:54.416Z,26.01
2017-07-19T09:03:21.927Z,26.03
2017-07-19T09:05:49.466Z,26.04
2017-07-19T09:08:16.977Z,26.04
2017-07-19T09:10:44.518Z,26.04
2017-07-19T09:13:12.024Z,26.05
2017-07-19T09:15:39.589Z,26.05
2017-07-19T09:18:07.943Z,26.07
2017-07-19T09:20:35.455Z,26.07
2017-07-19T09:23:03.102Z,26.07
2017-07-19T09:25:30.609Z,26.08
2017-07-19T09:27:58.123Z,26.08
2017-07-19T09:30:25.680Z,26.09
2017-07-19T09:32:53.195Z,26.09
2017-07-19T09:35:20.716Z,26.09
2017-07-19T09:37:48.275Z,26.10
2017-07-19T09:40:15.788Z,26.10
2017-07-19T09:42:43.300Z,26.10
2017-07-19T09:45:10.864Z,26.11
2017-07-19T09:47:38.369Z,26.12
2017-07-19T09:50:05.879Z,26.11
2017-07-19T09:52:33.446Z,26.12
2017-07-19T09:55:00.969Z,26.14
2017-07-19T09:57:28.483Z,26.13
2017-07-19T09:59:56.048Z,26.13
2017-07-19T10:02:23.559Z,26.14
2017-07-19T10:04:51.063Z,26.15
2017-07-19T10:07:18.625Z,26.15
2017-07-19T10:09:46.129Z,26.16
2017-07-19T10:12:13.640Z,26.16
2017-07-19T10:14:41.198Z,26.16
2017-07-19T10:17:08.711Z,26.17
2017-07-19T10:19:36.212Z,26.17
2017-07-19T10:22:03.780Z,26.18
2017-07-19T10:24:31.287Z,26.19
2017-07-19T10:26:58.796Z,26.19
2017-07-19T10:29:26.365Z,26.20
2017-07-19T10:31:53.877Z,26.20
2017-07-19T10:34:21.414Z,26.20
2017-07-19T10:36:48.976Z,26.20
2017-07-19T10:39:16.533Z,26.21
2017-07-19T10:41:44.050Z,26.22
2017-07-19T10:44:11.652Z,26.22
2017-07-19T10:46:39.173Z,26.23
2017-07-19T10:49:06.724Z,26.23
2017-07-19T10:51:34.239Z,26.23
2017-07-19T10:54:01.792Z,26.25
2017-07-19T10:56:29.336Z,26.25
2017-07-19T10:58:56.836Z,26.25
2017-07-19T11:01:24.381Z,26.26
2017-07-19T11:03:51.899Z,26.26
2017-07-19T11:06:19.404Z,26.26
2017-07-19T11:08:46.949Z,26.28
2017-07-19T11:11:14.455Z,26.29
2017-07-19T11:13:42.005Z,26.28
2017-07-19T11:16:09.526Z,26.29
2017-07-19T11:18:37.046Z,26.30
2017-07-19T11:21:04.642Z,26.30
2017-07-19T11:23:32.184Z,26.31
2017-07-19T11:25:59.736Z,26.31
2017-07-19T11:28:27.246Z,26.32
2017-07-19T11:30:54.780Z,26.32
2017-07-19T11:33:22.319Z,26.33
2017-07-19T11:35:49.838Z,26.34
2017-07-19T11:38:17.386Z,26.34
2017-07-19T11:40:44.900Z,26.35
2017-07-19T11:43:12.408Z,26.37
2017-07-19T11:45:39.956Z,26.37
2017-07-19T11:48:07.466Z,26.37
2017-07-19T11:50:35.053Z,26.38
2017-07-19T11:53:02.559Z,26.39
2017-07-19T11:55:30.077Z,26.40
2017-07-19T11:57:57.626Z,26.41
2017-07-19T12:00:25.139Z,26.41
2017-07-19T12:02:52.685Z,26.41
2017-07-19T12:05:20.206Z,26.42
2017-07-19T12:07:47.732Z,26.43
2017-07-19T12:10:15.276Z,26.43
2017-07-19T12:12:42.785Z,26.43
2017-07-19T12:15:10.352Z,26.45
2017-07-19T12:17:37.857Z,26.45
2017-07-19T12:20:05.372Z,26.46
2017-07-19T12:22:32.923Z,26.46
2017-07-19T12:25:00.437Z,26.47
2017-07-19T12:27:27.993Z,26.48
2017-07-19T12:29:55.505Z,26.49
2017-07-19T12:32:23.058Z,26.49
2017-07-19T12:34:50.612Z,26.50
2017-07-19T12:37:18.120Z,26.50
2017-07-19T12:39:45.680Z,26.50
2017-07-19T12:42:13.184Z,26.52
2017-07-19T12:44:40.692Z,26.52
2017-07-19T12:47:08.233Z,26.53
2017-07-19T12:49:35.747Z,26.53
2017-07-19T12:52:03.295Z,26.54
2017-07-19T12:54:30.809Z,26.55
2017-07-19T12:56:58.317Z,26.55
2017-07-19T12:59:25.856Z,26.56
2017-07-19T13:01:53.469Z,26.56
2017-07-19T13:04:21.043Z,26.57
2017-07-19T13:06:48.552Z,26.58
2017-07-19T13:09:16.057Z,26.58
2017-07-19T13:11:43.599Z,26.59
2017-07-19T13:14:11.110Z,26.60
2017-07-19T13:16:38.652Z,26.61
2017-07-19T13:19:06.158Z,26.61
2017-07-19T13:21:33.673Z,26.62
2017-07-19T13:24:01.219Z,26.63
2017-07-19T13:26:28.729Z,26.64
2017-07-19T13:28:56.291Z,26.65
2017-07-19T13:31:23.818Z,26.65
2017-07-19T13:33:51.331Z,26.66
2017-07-19T13:36:18.868Z,26.66
2017-07-19T13:38:46.386Z,26.68
2017-07-19T13:41:13.948Z,26.68
2017-07-19T13:43:41.460Z,26.69
2017-07-19T13:46:08.971Z,26.70
2017-07-19T13:48:36.509Z,26.70
2017-07-19T13:51:04.056Z,26.72
2017-07-19T13:53:31.611Z,26.71
2017-07-19T13:55:59.126Z,26.72
2017-07-19T13:58:26.639Z,26.73
2017-07-19T14:00:54.196Z,26.74
2017-07-19T14:03:21.702Z,26.74
2017-07-19T14:05:49.264Z,26.75
2017-07-19T14:08:16.772Z,26.76
2017-07-19T14:10:44.277Z,26.77
2017-07-19T14:13:11.826Z,26.78
2017-07-19T14:15:39.342Z,26.78
2017-07-19T14:18:06.903Z,26.78
2017-07-19T14:20:34.406Z,26.79
2017-07-19T14:23:01.919Z,26.80
2017-07-19T14:25:29.488Z,26.79
2017-07-19T14:27:56.998Z,26.81
2017-07-19T14:30:24.501Z,26.81
2017-07-19T14:32:52.052Z,26.82
2017-07-19T14:35:19.566Z,26.82
2017-07-19T14:37:47.069Z,26.82
2017-07-19T14:40:14.625Z,26.83
2017-07-19T14:42:42.142Z,26.83
2017-07-19T14:45:09.650Z,26.85
2017-07-19T14:47:37.216Z,26.85
2017-07-19T14:50:04.729Z,26.86
2017-07-19T14:52:32.237Z,26.86
2017-07-19T14:54:59.829Z,26.87
2017-07-19T14:57:27.337Z,26.88
2017-07-19T14:59:54.950Z,26.88
2017-07-19T15:02:22.500Z,26.88
2017-07-19T15:04:50.018Z,26.89
2017-07-19T15:07:17.537Z,26.90
2017-07-19T15:09:45.073Z,26.90
2017-07-19T15:12:12.578Z,26.91
2017-07-19T15:14:40.086Z,26.92
2017-07-19T15:17:07.633Z,26.92
2017-07-19T15:19:35.141Z,26.93
2017-07-19T15:22:02.661Z,26.93
2017-07-19T15:24:30.232Z,26.94
2017-07-19T15:26:57.736Z,26.95
2017-07-19T15:29:25.243Z,26.95
2017-07-19T15:31:52.805Z,26.95
2017-07-19T15:34:20.322Z,26.96
2017-07-19T15:36:47.836Z,26.97
2017-07-19T15:39:15.396Z,26.97
2017-07-19T15:41:42.905Z,26.97
2017-07-19T15:44:10.420Z,26.99
2017-07-19T15:46:37.958Z,26.99
2017-07-19T15:49:05.465Z,26.99
2017-07-19T15:51:33.093Z,27.00
2017-07-19T15:54:00.609Z,27.00
2017-07-19T15:56:28.152Z,27.01
2017-07-19T15:58:55.661Z,27.02
2017-07-19T16:01:23.170Z,27.03
2017-07-19T16:03:50.710Z,27.02
2017-07-19T16:06:18.248Z,27.03
2017-07-19T16:08:45.783Z,27.03
2017-07-19T16:11:13.292Z,27.05
2017-07-19T16:13:40.858Z,27.05
2017-07-19T16:16:08.376Z,27.05
2017-07-19T16:18:35.917Z,27.05
2017-07-19T16:21:03.437Z,27.05
2017-07-19T16:23:31.386Z,27.06
2017-07-19T16:25:58.896Z,27.07
2017-07-19T16:28:26.446Z,27.08
2017-07-19T16:30:53.959Z,27.09
2017-07-19T16:33:21.530Z,27.10
2017-07-19T16:35:49.045Z,27.11
2017-07-19T16:38:16.588Z,27.11
2017-07-19T16:40:44.188Z,27.12
2017-07-19T16:43:11.736Z,27.13
2017-07-19T16:45:39.248Z,27.14
2017-07-19T16:48:06.760Z,27.14
2017-07-19T16:50:34.326Z,27.15
2017-07-19T16:53:01.829Z,27.16
2017-07-19T16:55:29.368Z,27.17
2017-07-19T16:57:56.878Z,27.17
2017-07-19T17:00:24.430Z,27.17
2017-07-19T17:02:51.940Z,27.18
2017-07-19T17:05:19.583Z,27.19
2017-07-19T17:07:47.106Z,27.20
2017-07-19T17:10:14.640Z,27.20
2017-07-19T17:12:42.145Z,27.20
2017-07-19T17:15:09.691Z,27.21
2017-07-19T17:17:37.199Z,27.21
2017-07-19T17:20:04.769Z,27.22
2017-07-19T17:22:32.287Z,27.22
2017-07-19T17:24:59.824Z,27.23
2017-07-19T17:27:27.344Z,27.23
2017-07-19T17:29:54.889Z,27.23
2017-07-19T17:32:22.402Z,27.24
2017-07-19T17:34:49.916Z,27.25
2017-07-19T17:37:17.456Z,27.24
2017-07-19T17:39:44.959Z,27.25
2017-07-19T17:42:12.501Z,27.25
2017-07-19T17:44:40.025Z,27.26
2017-07-19T17:47:07.581Z,27.26
2017-07-19T17:49:35.092Z,27.26
2017-07-19T17:52:02.630Z,27.26
2017-07-19T17:54:30.140Z,27.27
2017-07-19T17:56:57.677Z,27.27
2017-07-19T17:59:25.189Z,27.27
2017-07-19T18:01:52.733Z,27.27
2017-07-19T18:04:20.240Z,27.28
2017-07-19T18:06:47.794Z,27.28
2017-07-19T18:09:15.299Z,27.27
2017-07-19T18:11:42.849Z,27.28
2017-07-19T18:14:10.364Z,27.29
2017-07-19T18:16:37.868Z,27.29
2017-07-19T18:19:05.413Z,27.29
2017-07-19T18:21:32.923Z,27.30
2017-07-19T18:24:00.474Z,27.31
2017-07-19T18:26:28.038Z,27.31
2017-07-19T18:28:55.583Z,27.33
2017-07-19T18:31:23.097Z,27.33
2017-07-19T18:33:50.637Z,27.33
2017-07-19T18:36:18.147Z,27.34
2017-07-19T18:38:45.691Z,27.34
2017-07-19T18:41:13.205Z,27.35
2017-07-19T18:43:40.749Z,27.36
2017-07-19T18:46:08.310Z,27.36
2017-07-19T18:48:35.857Z,27.36
2017-07-19T18:51:03.366Z,27.37
2017-07-19T18:53:30.933Z,27.38
2017-07-19T18:55:58.445Z,27.37
2017-07-19T18:58:25.990Z,27.38
2017-07-19T19:00:53.563Z,27.39
2017-07-19T19:03:21.080Z,27.40
2017-07-19T19:05:48.616Z,27.39
2017-07-19T19:08:16.127Z,27.39
2017-07-19T19:10:43.679Z,27.40
2017-07-19T19:13:11.189Z,27.40
2017-07-19T19:15:38.730Z,27.41
2017-07-19T19:18:06.241Z,27.41
2017-07-19T19:20:33.787Z,27.42
2017-07-19T19:23:01.296Z,27.42
2017-07-19T19:25:28.851Z,27.42
2017-07-19T19:27:56.362Z,27.43
2017-07-19T19:30:23.920Z,27.44
2017-07-19T19:32:51.431Z,27.45
2017-07-19T19:35:18.975Z,27.45
2017-07-19T19:37:46.489Z,27.46
2017-07-19T19:40:14.033Z,27.46
2017-07-19T19:42:41.539Z,27.47
2017-07-19T19:45:09.094Z,27.47
2017-07-19T19:47:36.611Z,27.47
2017-07-19T19:50:04.115Z,27.48
2017-07-19T19:52:31.671Z,27.48
2017-07-19T19:54:59.193Z,27.50
2017-07-19T19:57:26.748Z,27.50
2017-07-19T19:59:54.255Z,27.49
2017-07-19T20:02:21.808Z,27.50
2017-07-19T20:04:49.325Z,27.50
2017-07-19T20:07:16.876Z,27.50
2017-07-19T20:09:44.392Z,27.51
2017-07-19T20:12:11.934Z,27.51
2017-07-19T20:14:39.447Z,27.51
2017-07-19T20:17:06.992Z,27.51
2017-07-19T20:19:34.509Z,27.52
2017-07-19T20:22:02.064Z,27.52
2017-07-19T20:24:29.682Z,27.52
2017-07-19T20:26:57.231Z,27.53
2017-07-19T20:29:24.749Z,27.53
2017-07-19T20:31:52.297Z,27.53
2017-07-19T20:34:19.887Z,27.53
2017-07-19T20:36:47.412Z,27.53
2017-07-19T20:39:14.963Z,27.53
2017-07-19T20:41:42.481Z,27.52
2017-07-19T20:44:10.025Z,27.52
2017-07-19T20:46:37.541Z,27.52
2017-07-19T20:49:05.088Z,27.52
2017-07-19T20:51:32.659Z,27.52
2017-07-19T20:54:00.209Z,27.55
2017-07-19T20:56:27.735Z,27.64
2017-07-19T20:58:55.325Z,27.65
2017-07-19T21:01:22.844Z,27.20
2017-07-19T21:03:50.392Z,27.18
2017-07-19T21:06:17.901Z,27.11
2017-07-19T21:08:45.921Z,27.00
2017-07-19T21:11:13.479Z,26.87
2017-07-19T21:13:41.066Z,26.91
2017-07-19T21:16:08.623Z,26.63
2017-07-19T21:18:36.623Z,26.55
2017-07-19T21:21:04.188Z,26.57
2017-07-19T21:23:32.425Z,26.62
2017-07-19T21:25:59.974Z,26.53
2017-07-19T21:28:27.527Z,26.65
2017-07-19T21:30:55.115Z,26.53
2017-07-19T21:33:22.671Z,26.57
2017-07-19T21:35:50.266Z,26.59
2017-07-19T21:38:17.821Z,26.62
2017-07-19T21:40:45.407Z,26.67
2017-07-19T21:43:13.096Z,26.71
2017-07-19T21:45:40.689Z,26.75
2017-07-19T21:48:08.247Z,26.78
2017-07-19T21:50:35.851Z,26.80
2017-07-19T21:53:03.401Z,26.82
2017-07-19T21:55:31.030Z,26.83
2017-07-19T21:57:58.586Z,26.85
2017-07-19T22:00:26.179Z,26.83
2017-07-19T22:02:53.736Z,26.81
2017-07-19T22:05:21.316Z,26.80
2017-07-19T22:07:48.871Z,26.76
2017-07-19T22:10:16.450Z,26.71
2017-07-19T22:12:43.999Z,26.66
2017-07-19T22:15:11.605Z,26.63
2017-07-19T22:17:39.159Z,26.60
2017-07-19T22:20:06.718Z,26.61
2017-07-19T22:22:34.310Z,26.58
2017-07-19T22:25:01.877Z,26.57
2017-07-19T22:27:29.455Z,26.52
2017-07-19T22:29:57.011Z,26.47
2017-07-19T22:32:24.590Z,26.49
2017-07-19T22:34:52.147Z,26.46
2017-07-19T22:37:19.731Z,26.45
2017-07-19T22:39:47.298Z,26.46
2017-07-19T22:42:14.877Z,26.44
2017-07-19T22:44:42.431Z,26.44
2017-07-19T22:47:10.013Z,26.43
2017-07-19T22:49:37.569Z,26.38
2017-07-19T22:52:05.176Z,26.33
2017-07-19T22:54:32.735Z,26.28
2017-07-19T22:57:00.413Z,26.25
2017-07-19T22:59:27.979Z,26.26
2017-07-19T23:01:55.590Z,26.25
2017-07-19T23:04:23.218Z,26.23
2017-07-19T23:06:50.780Z,26.24
2017-07-19T23:09:18.371Z,26.26
2017-07-19T23:11:45.922Z,26.26
2017-07-19T23:14:13.508Z,26.26
2017-07-19T23:16:41.077Z,26.25
2017-07-19T23:19:08.665Z,26.24
2017-07-19T23:21:36.319Z,26.24
2017-07-19T23:24:03.919Z,26.21
2017-07-19T23:26:31.475Z,26.19
2017-07-19T23:28:59.072Z,26.18
2017-07-19T23:31:26.686Z,26.16
2017-07-19T23:33:54.327Z,26.16
2017-07-19T23:36:21.887Z,26.18
2017-07-19T23:38:49.490Z,26.19
2017-07-19T23:41:17.603Z,26.21
2017-07-19T23:43:45.186Z,26.20
2017-07-19T23:46:12.739Z,26.22
2017-07-19T23:48:40.329Z,26.21
2017-07-19T23:51:07.881Z,26.20
2017-07-19T23:53:35.465Z,26.21
2017-07-19T23:56:03.019Z,26.18
2017-07-19T23:58:30.581Z,26.17
